Time;durP1;ratioP1;P1;durP2;ratioP2;P2;SDS_P1;SDS_P2;PMS_P1;PMS_P2;Temp;Humidity;BMP_temperature;BMP_pressure;BME280_temperature;BME280_humidity;BME280_pressure;Samples;Min_cycle;Max_cycle;Signal;HPM_P1;HPM_P2
2022/10/26 00:00:05;;;;;;;3.45;3.25;;;;;;;;;;5051013;28;20045;-83
2022/10/26 00:02:32;;;;;;;3.80;3.20;;;;;;;;;;5050987;28;20053;-83
2022/10/26 00:04:59;;;;;;;3.20;2.92;;;;;;;;;;5050361;28;20496;-83
2022/10/26 00:07:25;;;;;;;3.22;3.03;;;;;;;;;;5051418;28;20049;-83
2022/10/26 00:09:52;;;;;;;3.70;3.42;;;;;;;;;;5050829;28;20052;-83
2022/10/26 00:12:20;;;;;;;2.70;2.42;;;;;;;;;;5050977;28;20056;-83
2022/10/26 00:14:46;;;;;;;3.33;3.08;;;;;;;;;;5050887;28;20095;-83
2022/10/26 00:17:13;;;;;;;3.05;2.85;;;;;;;;;;5052350;28;20106;-83
2022/10/26 00:19:39;;;;;;;11.20;2.28;;;;;;;;;;5054405;28;20049;-83
2022/10/26 00:22:06;;;;;;;3.47;3.28;;;;;;;;;;5054409;28;20455;-83
2022/10/26 00:24:32;;;;;;;2.60;2.40;;;;;;;;;;5054279;28;20103;-83
2022/10/26 00:26:58;;;;;;;5.18;4.68;;;;;;;;;;5054460;28;20497;-83
2022/10/26 00:29:26;;;;;;;2.95;2.75;;;;;;;;;;5054468;28;20045;-83
2022/10/26 00:31:53;;;;;;;3.95;3.13;;;;;;;;;;5054086;28;20106;-84
2022/10/26 00:34:19;;;;;;;2.75;2.55;;;;;;;;;;5054406;28;20455;-83
2022/10/26 00:36:46;;;;;;;3.22;3.00;;;;;;;;;;5053653;28;20106;-83
2022/10/26 00:39:13;;;;;;;4.82;3.30;;;;;;;;;;5053981;28;20049;-83
2022/10/26 00:41:40;;;;;;;5.55;3.15;;;;;;;;;;5054045;28;20103;-83
2022/10/26 00:44:21;;;;;;;2.03;1.90;;;;;;;;;;5054005;28;20555;-83
2022/10/26 00:46:49;;;;;;;3.08;2.78;;;;;;;;;;5073572;28;20045;-83
2022/10/26 00:49:18;;;;;;;7.47;1.95;;;;;;;;;;5074183;28;20052;-83
2022/10/26 00:51:46;;;;;;;4.50;2.53;;;;;;;;;;5073554;28;20110;-83
2022/10/26 00:54:13;;;;;;;2.50;2.00;;;;;;;;;;5073937;28;20044;-83
2022/10/26 00:56:41;;;;;;;2.13;2.03;;;;;;;;;;5073733;28;20056;-83
2022/10/26 00:59:09;;;;;;;1.52;1.15;;;;;;;;;;5073673;28;20093;-83
2022/10/26 01:01:36;;;;;;;2.05;1.90;;;;;;;;;;5073544;28;20056;-83
2022/10/26 01:04:04;;;;;;;3.50;2.30;;;;;;;;;;5073894;28;20101;-83
2022/10/26 01:06:32;;;;;;;4.03;3.72;;;;;;;;;;5072942;28;20122;-83
2022/10/26 01:08:58;;;;;;;4.53;1.40;;;;;;;;;;5073631;28;20542;-83
2022/10/26 01:11:25;;;;;;;2.85;2.67;;;;;;;;;;5073409;28;20052;-83
2022/10/26 01:13:53;;;;;;;3.83;3.20;;;;;;;;;;5073448;28;20048;-83
2022/10/26 01:16:25;;;;;;;2.88;2.70;;;;;;;;;;5073165;28;20099;-83
2022/10/26 01:18:56;;;;;;;3.05;2.17;;;;;;;;;;5073030;28;20053;-83
2022/10/26 01:21:49;;;;;;;3.40;3.20;;;;;;;;;;5073198;28;20052;-83
2022/10/26 01:24:31;;;;;;;2.67;2.47;;;;;;;;;;5011304;28;20556;-83
2022/10/26 01:27:15;;;;;;;2.33;1.98;;;;;;;;;;5008701;28;20049;-83
2022/10/26 01:29:54;;;;;;;3.55;2.05;;;;;;;;;;5010025;28;20046;-83
2022/10/26 01:32:24;;;;;;;1.98;1.85;;;;;;;;;;5011406;28;20057;-83
2022/10/26 01:34:53;;;;;;;2.38;1.67;;;;;;;;;;5010977;28;20053;-83
2022/10/26 01:37:22;;;;;;;1.83;1.73;;;;;;;;;;5011088;28;20054;-83
2022/10/26 01:39:52;;;;;;;4.07;3.53;;;;;;;;;;5007440;28;20108;-83
2022/10/26 01:42:19;;;;;;;2.42;2.30;;;;;;;;;;5010928;28;20050;-83
2022/10/26 01:44:47;;;;;;;3.08;2.75;;;;;;;;;;5010889;28;20058;-83
2022/10/26 01:47:15;;;;;;;3.53;3.33;;;;;;;;;;5010942;28;20054;-83
2022/10/26 01:49:46;;;;;;;2.58;2.47;;;;;;;;;;5010708;28;20046;-83
2022/10/26 01:52:12;;;;;;;1.30;1.23;;;;;;;;;;5010757;28;20050;-83
2022/10/26 01:54:39;;;;;;;1.58;1.48;;;;;;;;;;5010922;28;20046;-83
2022/10/26 01:57:08;;;;;;;2.58;2.47;;;;;;;;;;5010530;28;20096;-83
2022/10/26 01:59:50;;;;;;;3.67;1.73;;;;;;;;;;5023205;28;20626;-83
2022/10/26 02:02:34;;;;;;;3.08;2.97;;;;;;;;;;5052613;28;20045;-83
2022/10/26 02:05:22;;;;;;;1.38;1.23;;;;;;;;;;5052555;28;20093;-84
2022/10/26 02:07:54;;;;;;;2.40;2.30;;;;;;;;;;5049111;28;20049;-83
2022/10/26 02:10:26;;;;;;;3.13;2.95;;;;;;;;;;5052465;28;20036;-83
2022/10/26 02:12:59;;;;;;;1.88;1.77;;;;;;;;;;5052531;28;20139;-83
2022/10/26 02:15:28;;;;;;;4.78;2.70;;;;;;;;;;5052284;28;20044;-83
2022/10/26 02:17:59;;;;;;;3.50;3.33;;;;;;;;;;5052341;28;20452;-83
2022/10/26 02:20:27;;;;;;;2.50;2.40;;;;;;;;;;5052374;28;20045;-83
2022/10/26 02:22:55;;;;;;;3.25;3.05;;;;;;;;;;5052341;28;20578;-83
2022/10/26 02:25:24;;;;;;;3.45;3.25;;;;;;;;;;5052125;28;20098;-83
2022/10/26 02:27:53;;;;;;;5.60;2.38;;;;;;;;;;5052213;28;20418;-83
2022/10/26 02:30:20;;;;;;;3.47;3.20;;;;;;;;;;5052338;28;20069;-83
2022/10/26 02:32:48;;;;;;;2.08;1.60;;;;;;;;;;5052112;28;20057;-83
2022/10/26 02:35:16;;;;;;;3.00;2.78;;;;;;;;;;5051935;28;20516;-83
2022/10/26 02:37:44;;;;;;;3.65;3.45;;;;;;;;;;5052159;28;20057;-83
2022/10/26 02:40:14;;;;;;;7.22;2.08;;;;;;;;;;5051626;28;20470;-83
2022/10/26 02:42:42;;;;;;;2.67;2.47;;;;;;;;;;5052131;28;20053;-83
2022/10/26 02:45:10;;;;;;;3.85;3.60;;;;;;;;;;5051740;28;20602;-83
2022/10/26 02:47:36;;;;;;;1.80;1.70;;;;;;;;;;5071779;28;20111;-83
2022/10/26 02:50:03;;;;;;;3.95;2.90;;;;;;;;;;5071795;28;20565;-83
2022/10/26 02:52:34;;;;;;;5.35;5.05;;;;;;;;;;5071604;28;20090;-83
2022/10/26 02:55:03;;;;;;;4.93;2.72;;;;;;;;;;5071475;28;20113;-83
2022/10/26 02:57:33;;;;;;;3.95;2.25;;;;;;;;;;5071768;28;20355;-83
2022/10/26 02:59:59;;;;;;;3.92;3.03;;;;;;;;;;5071587;28;20492;-83
2022/10/26 03:02:27;;;;;;;1.30;1.05;;;;;;;;;;5071426;28;20056;-83
2022/10/26 03:04:54;;;;;;;3.03;2.40;;;;;;;;;;5071616;28;20601;-83
2022/10/26 03:07:21;;;;;;;4.10;3.90;;;;;;;;;;5071479;28;20102;-83
2022/10/26 03:09:47;;;;;;;4.05;3.72;;;;;;;;;;5071496;28;20455;-83
2022/10/26 03:12:14;;;;;;;4.03;3.72;;;;;;;;;;5071553;28;20113;-83
2022/10/26 03:14:42;;;;;;;10.13;2.72;;;;;;;;;;5071513;28;20458;-83
2022/10/26 03:17:08;;;;;;;3.75;2.25;;;;;;;;;;5070930;28;20090;-84
2022/10/26 03:19:34;;;;;;;3.90;2.83;;;;;;;;;;5071421;28;20053;-84
2022/10/26 03:22:01;;;;;;;3.03;2.35;;;;;;;;;;5071224;28;20053;-83
2022/10/26 03:24:27;;;;;;;0.93;0.93;;;;;;;;;;5071637;28;20044;-84
2022/10/26 03:26:54;;;;;;;2.78;2.58;;;;;;;;;;5071403;28;20053;-83
2022/10/26 03:29:20;;;;;;;2.67;2.47;;;;;;;;;;5071355;28;20049;-83
2022/10/26 03:31:52;;;;;;;2.35;2.22;;;;;;;;;;5071179;28;20044;-83
2022/10/26 03:34:19;;;;;;;2.92;2.72;;;;;;;;;;5071492;28;20476;-83
2022/10/26 03:36:45;;;;;;;5.00;3.85;;;;;;;;;;5071094;28;20117;-83
2022/10/26 03:39:12;;;;;;;4.00;3.40;;;;;;;;;;5071071;28;20561;-84
2022/10/26 03:41:38;;;;;;;3.65;3.45;;;;;;;;;;5071130;28;20098;-83
2022/10/26 03:44:05;;;;;;;8.82;2.88;;;;;;;;;;5071523;28;20113;-84
2022/10/26 03:46:32;;;;;;;3.67;3.22;;;;;;;;;;5071078;28;20136;-84
2022/10/26 03:49:00;;;;;;;1.95;1.85;;;;;;;;;;5071280;28;20664;-84
2022/10/26 03:51:26;;;;;;;2.78;2.58;;;;;;;;;;5071304;28;20105;-83
2022/10/26 03:53:53;;;;;;;3.13;2.65;;;;;;;;;;5075093;28;20048;-84
2022/10/26 03:56:19;;;;;;;2.95;2.50;;;;;;;;;;5074835;28;20459;-84
2022/10/26 03:58:46;;;;;;;6.05;5.53;;;;;;;;;;5074904;28;20052;-84
2022/10/26 04:01:12;;;;;;;2.72;2.53;;;;;;;;;;5074342;28;20431;-84
2022/10/26 04:03:39;;;;;;;2.40;2.30;;;;;;;;;;5074777;28;20049;-84
2022/10/26 04:06:07;;;;;;;2.33;2.22;;;;;;;;;;5074532;28;20488;-83
2022/10/26 04:08:34;;;;;;;2.60;2.40;;;;;;;;;;5074905;28;20110;-83
2022/10/26 04:11:00;;;;;;;2.13;2.03;;;;;;;;;;5074207;28;20102;-84
2022/10/26 04:13:27;;;;;;;1.50;1.23;;;;;;;;;;5074745;28;20049;-84
2022/10/26 04:15:53;;;;;;;1.95;1.85;;;;;;;;;;5074234;28;20052;-83
2022/10/26 04:18:20;;;;;;;1.58;1.48;;;;;;;;;;5074496;28;20052;-86
2022/10/26 04:20:46;;;;;;;2.28;2.10;;;;;;;;;;5074358;28;20053;-83
2022/10/26 04:23:15;;;;;;;2.10;2.00;;;;;;;;;;5074214;28;20102;-83
2022/10/26 04:25:41;;;;;;;1.65;1.55;;;;;;;;;;5074509;28;20049;-84
2022/10/26 04:28:08;;;;;;;2.38;2.17;;;;;;;;;;5074320;28;20056;-84
2022/10/26 04:30:35;;;;;;;1.30;1.20;;;;;;;;;;5074305;28;20048;-84
2022/10/26 04:33:02;;;;;;;12.35;2.58;;;;;;;;;;5074001;28;20532;-83
2022/10/26 04:35:29;;;;;;;4.20;2.25;;;;;;;;;;5074235;28;20052;-83
2022/10/26 04:37:57;;;;;;;2.58;2.00;;;;;;;;;;5074006;28;20056;-83
2022/10/26 04:40:25;;;;;;;5.65;1.85;;;;;;;;;;5074195;28;20113;-84
2022/10/26 04:42:51;;;;;;;1.13;0.93;;;;;;;;;;5073788;28;20561;-84
2022/10/26 04:45:18;;;;;;;8.27;2.83;;;;;;;;;;5074108;28;20098;-84
2022/10/26 04:47:44;;;;;;;0.85;0.82;;;;;;;;;;5073817;28;20446;-83
2022/10/26 04:50:11;;;;;;;2.90;2.05;;;;;;;;;;5074340;28;20049;-83
2022/10/26 04:52:38;;;;;;;2.22;2.08;;;;;;;;;;5073837;28;20049;-83
2022/10/26 04:55:05;;;;;;;2.20;2.03;;;;;;;;;;5073907;28;20094;-83
2022/10/26 04:57:33;;;;;;;2.13;1.67;;;;;;;;;;5073639;28;20443;-84
2022/10/26 05:00:00;;;;;;;3.83;2.35;;;;;;;;;;5073898;28;20049;-84
2022/10/26 05:02:27;;;;;;;1.83;1.65;;;;;;;;;;5073403;28;20050;-83
2022/10/26 05:04:53;;;;;;;2.97;2.78;;;;;;;;;;5073691;28;20492;-84
2022/10/26 05:07:20;;;;;;;3.60;2.65;;;;;;;;;;5073525;28;20048;-84
2022/10/26 05:09:47;;;;;;;3.85;2.80;;;;;;;;;;5073528;28;20052;-84
2022/10/26 05:12:13;;;;;;;3.33;2.55;;;;;;;;;;5073497;28;20397;-83
2022/10/26 05:14:41;;;;;;;1.73;0.90;;;;;;;;;;5073793;28;20048;-83
2022/10/26 05:17:07;;;;;;;2.13;1.92;;;;;;;;;;5073094;28;20053;-84
2022/10/26 05:19:34;;;;;;;1.77;1.67;;;;;;;;;;5073753;28;20101;-84
2022/10/26 05:22:00;;;;;;;1.88;1.77;;;;;;;;;;5065713;28;20053;-84
2022/10/26 05:24:27;;;;;;;3.38;3.17;;;;;;;;;;5053285;28;20056;-84
2022/10/26 05:26:53;;;;;;;1.90;1.80;;;;;;;;;;5061751;28;20673;-84
2022/10/26 05:29:20;;;;;;;2.42;2.30;;;;;;;;;;5072538;28;20110;-84
2022/10/26 05:31:48;;;;;;;3.58;3.22;;;;;;;;;;5071737;28;20689;-84
2022/10/26 05:34:14;;;;;;;2.78;2.40;;;;;;;;;;5071986;28;20500;-84
2022/10/26 05:36:41;;;;;;;5.45;2.85;;;;;;;;;;5072105;28;20114;-84
2022/10/26 05:39:07;;;;;;;2.88;2.67;;;;;;;;;;5072569;28;20109;-84
2022/10/26 05:41:34;;;;;;;3.25;3.03;;;;;;;;;;5070772;28;20044;-84
2022/10/26 05:44:00;;;;;;;2.50;2.03;;;;;;;;;;5052591;28;20052;-85
2022/10/26 05:46:27;;;;;;;4.72;2.83;;;;;;;;;;5055334;28;20060;-85
2022/10/26 05:48:55;;;;;;;4.13;3.47;;;;;;;;;;5067674;28;20122;-84
2022/10/26 05:51:21;;;;;;;5.32;4.07;;;;;;;;;;5069828;28;20119;-86
2022/10/26 05:53:48;;;;;;;4.65;4.35;;;;;;;;;;5053159;28;20112;-87
2022/10/26 05:56:17;;;;;;;3.45;3.17;;;;;;;;;;5061292;28;20056;-87
2022/10/26 05:58:44;;;;;;;3.38;2.30;;;;;;;;;;5072000;28;20098;-86
2022/10/26 06:01:15;;;;;;;1.80;1.65;;;;;;;;;;5071645;28;20330;-86
2022/10/26 06:03:46;;;;;;;4.85;4.55;;;;;;;;;;5072168;28;20052;-86
2022/10/26 06:06:14;;;;;;;4.55;2.42;;;;;;;;;;5072454;28;20048;-83
2022/10/26 06:08:41;;;;;;;3.25;2.95;;;;;;;;;;5071676;28;20484;-85
2022/10/26 06:11:08;;;;;;;4.72;4.40;;;;;;;;;;5071719;28;20743;-85
2022/10/26 06:13:35;;;;;;;1.85;1.73;;;;;;;;;;5071511;28;20147;-88
2022/10/26 06:16:09;;;;;;;2.95;2.70;;;;;;;;;;5067761;28;20114;-85
2022/10/26 06:18:41;;;;;;;3.88;3.63;;;;;;;;;;5061592;28;20519;-86
2022/10/26 06:21:13;;;;;;;3.03;2.80;;;;;;;;;;5069080;28;20779;-87
2022/10/26 06:23:51;;;;;;;2.88;2.67;;;;;;;;;;5055014;28;20814;-87
2022/10/26 06:26:20;;;;;;;3.67;3.47;;;;;;;;;;5051313;28;20056;-86
2022/10/26 06:28:56;;;;;;;3.83;2.75;;;;;;;;;;5051968;28;20110;-87
2022/10/26 06:31:22;;;;;;;4.13;3.35;;;;;;;;;;5052043;28;20049;-87
2022/10/26 06:33:49;;;;;;;3.10;2.90;;;;;;;;;;5051205;28;20049;-87
2022/10/26 06:36:20;;;;;;;2.90;2.70;;;;;;;;;;5051582;28;20103;-86
2022/10/26 06:38:49;;;;;;;2.90;2.70;;;;;;;;;;5052134;28;20470;-87
2022/10/26 06:41:17;;;;;;;3.63;2.90;;;;;;;;;;5051619;28;20049;-87
2022/10/26 06:43:44;;;;;;;7.95;5.15;;;;;;;;;;5051976;28;20052;-86
2022/10/26 06:46:16;;;;;;;3.20;2.90;;;;;;;;;;5051686;28;20052;-87
2022/10/26 06:48:46;;;;;;;5.57;4.28;;;;;;;;;;5051606;28;20099;-87
2022/10/26 06:51:15;;;;;;;3.45;3.10;;;;;;;;;;5051188;28;20102;-87
2022/10/26 06:53:43;;;;;;;3.58;3.25;;;;;;;;;;5051749;28;20094;-86
2022/10/26 06:56:13;;;;;;;3.80;3.50;;;;;;;;;;5051163;28;20056;-86
2022/10/26 06:58:40;;;;;;;2.88;2.63;;;;;;;;;;5051548;28;20057;-87
2022/10/26 07:01:07;;;;;;;3.10;2.90;;;;;;;;;;5051397;28;20045;-87
2022/10/26 07:03:33;;;;;;;4.88;4.47;;;;;;;;;;5051418;28;20061;-87
2022/10/26 07:06:00;;;;;;;3.17;2.97;;;;;;;;;;5051494;28;20126;-86
2022/10/26 07:08:26;;;;;;;3.08;2.88;;;;;;;;;;5051167;28;20053;-85
2022/10/26 07:10:53;;;;;;;8.98;3.42;;;;;;;;;;5051156;28;20056;-87
2022/10/26 07:13:21;;;;;;;2.92;2.72;;;;;;;;;;5051706;28;20103;-85
2022/10/26 07:15:47;;;;;;;3.97;3.58;;;;;;;;;;5051117;28;20049;-87
2022/10/26 07:18:14;;;;;;;3.60;3.38;;;;;;;;;;5051098;28;20110;-86
2022/10/26 07:20:41;;;;;;;4.03;3.75;;;;;;;;;;5051079;28;20455;-86
2022/10/26 07:23:09;;;;;;;6.93;6.43;;;;;;;;;;5051168;28;20045;-85
2022/10/26 07:25:38;;;;;;;4.97;4.28;;;;;;;;;;5051054;28;20630;-85
2022/10/26 07:28:06;;;;;;;4.72;4.32;;;;;;;;;;5054528;28;20056;-87
2022/10/26 07:30:34;;;;;;;3.95;3.65;;;;;;;;;;5055408;28;20529;-85
2022/10/26 07:33:01;;;;;;;8.40;7.88;;;;;;;;;;5055102;28;20083;-85
2022/10/26 07:35:27;;;;;;;4.60;4.28;;;;;;;;;;5055247;28;20049;-85
2022/10/26 07:37:56;;;;;;;5.32;4.88;;;;;;;;;;5054772;28;20049;-86
2022/10/26 07:40:23;;;;;;;3.97;3.72;;;;;;;;;;5054693;28;20106;-86
2022/10/26 07:42:49;;;;;;;3.78;3.47;;;;;;;;;;5054816;28;20049;-86
2022/10/26 07:45:16;;;;;;;3.45;3.15;;;;;;;;;;5055039;28;20045;-86
2022/10/26 07:47:45;;;;;;;7.05;3.58;;;;;;;;;;5054858;28;20543;-86
2022/10/26 07:50:11;;;;;;;3.35;3.15;;;;;;;;;;5054920;28;20056;-86
2022/10/26 07:52:40;;;;;;;5.53;5.10;;;;;;;;;;5054757;28;20095;-86
2022/10/26 07:55:07;;;;;;;4.28;3.88;;;;;;;;;;5054635;28;20052;-86
2022/10/26 07:57:34;;;;;;;15.52;5.28;;;;;;;;;;5055061;28;20060;-86
2022/10/26 08:00:00;;;;;;;4.45;4.07;;;;;;;;;;5054833;28;20057;-86
2022/10/26 08:02:27;;;;;;;4.40;4.07;;;;;;;;;;5054402;28;20053;-86
2022/10/26 08:04:55;;;;;;;6.18;5.13;;;;;;;;;;5054973;28;20107;-86
2022/10/26 08:07:21;;;;;;;7.15;4.20;;;;;;;;;;5054461;28;20049;-86
2022/10/26 08:09:48;;;;;;;5.85;5.38;;;;;;;;;;5054354;28;20120;-86
2022/10/26 08:12:15;;;;;;;6.28;5.65;;;;;;;;;;5054496;28;20052;-86
2022/10/26 08:14:41;;;;;;;5.80;5.43;;;;;;;;;;5054320;28;20106;-86
2022/10/26 08:17:08;;;;;;;14.98;5.60;;;;;;;;;;5054380;28;20057;-86
2022/10/26 08:19:34;;;;;;;5.97;5.47;;;;;;;;;;5054206;28;20053;-86
2022/10/26 08:22:02;;;;;;;5.68;5.18;;;;;;;;;;5054296;28;20048;-86
2022/10/26 08:24:29;;;;;;;6.63;4.97;;;;;;;;;;5053938;28;20098;-86
2022/10/26 08:26:56;;;;;;;6.95;5.30;;;;;;;;;;5054358;28;20049;-86
2022/10/26 08:29:22;;;;;;;8.65;5.68;;;;;;;;;;5069837;28;20045;-86
2022/10/26 08:31:49;;;;;;;7.25;4.85;;;;;;;;;;5074218;28;20123;-86
2022/10/26 08:34:15;;;;;;;6.38;5.82;;;;;;;;;;5073625;28;20064;-86
2022/10/26 08:36:42;;;;;;;6.75;6.22;;;;;;;;;;5073910;28;20049;-86
2022/10/26 08:39:10;;;;;;;5.28;4.78;;;;;;;;;;5073032;28;20498;-86
2022/10/26 08:41:37;;;;;;;6.03;4.90;;;;;;;;;;5073829;28;20045;-86
2022/10/26 08:44:07;;;;;;;3.97;3.67;;;;;;;;;;5073723;28;20054;-86
2022/10/26 08:46:36;;;;;;;7.78;4.90;;;;;;;;;;5074318;28;20053;-86
2022/10/26 08:49:04;;;;;;;3.65;3.13;;;;;;;;;;5073708;28;20095;-86
2022/10/26 08:51:34;;;;;;;6.53;3.50;;;;;;;;;;5073915;28;20108;-86
2022/10/26 08:54:02;;;;;;;4.13;3.83;;;;;;;;;;5073261;28;20242;-86
2022/10/26 08:56:35;;;;;;;6.40;3.85;;;;;;;;;;5073576;28;20053;-86
2022/10/26 08:59:05;;;;;;;6.32;4.57;;;;;;;;;;5073260;28;20052;-86
2022/10/26 09:01:32;;;;;;;8.10;5.35;;;;;;;;;;5073413;28;20041;-86
2022/10/26 09:04:00;;;;;;;5.57;5.15;;;;;;;;;;5073496;28;20132;-86
2022/10/26 09:06:31;;;;;;;7.93;3.92;;;;;;;;;;5073143;28;20094;-86
2022/10/26 09:09:02;;;;;;;5.63;5.22;;;;;;;;;;5072571;28;20488;-87
2022/10/26 09:11:37;;;;;;;3.25;2.95;;;;;;;;;;5073710;28;20113;-85
2022/10/26 09:14:09;;;;;;;8.10;4.32;;;;;;;;;;5073282;28;20052;-86
2022/10/26 09:16:41;;;;;;;4.15;3.38;;;;;;;;;;5073532;28;20052;-87
2022/10/26 09:19:19;;;;;;;5.30;4.80;;;;;;;;;;5072617;28;20091;-86
2022/10/26 09:21:48;;;;;;;3.88;3.58;;;;;;;;;;5072917;28;20549;-87
2022/10/26 09:24:15;;;;;;;3.60;3.33;;;;;;;;;;5072454;28;20106;-86
2022/10/26 09:26:53;;;;;;;3.75;3.42;;;;;;;;;;5072832;28;20102;-86
2022/10/26 09:29:21;;;;;;;6.22;4.30;;;;;;;;;;5072834;28;20044;-86
2022/10/26 09:31:49;;;;;;;3.78;3.47;;;;;;;;;;5073238;28;20044;-87
2022/10/26 09:34:20;;;;;;;6.55;5.00;;;;;;;;;;5072691;28;20053;-87
2022/10/26 09:36:46;;;;;;;8.35;4.78;;;;;;;;;;5073025;28;20048;-87
2022/10/26 09:39:18;;;;;;;6.63;4.75;;;;;;;;;;5072500;28;20099;-87
2022/10/26 09:41:47;;;;;;;6.15;4.80;;;;;;;;;;5072928;28;20524;-87
2022/10/26 09:44:19;;;;;;;10.88;5.40;;;;;;;;;;5062400;28;20110;-87
2022/10/26 09:46:48;;;;;;;5.88;3.92;;;;;;;;;;5053142;28;20056;-87
2022/10/26 09:49:15;;;;;;;7.25;5.35;;;;;;;;;;5070504;28;20057;-87
2022/10/26 09:51:43;;;;;;;5.65;5.25;;;;;;;;;;5072926;28;20048;-87
2022/10/26 09:54:13;;;;;;;4.60;4.05;;;;;;;;;;5063541;28;20057;-87
2022/10/26 09:56:40;;;;;;;4.95;4.63;;;;;;;;;;5052412;28;20570;-87
2022/10/26 09:59:10;;;;;;;6.13;5.57;;;;;;;;;;5052607;28;20056;-87
2022/10/26 10:01:37;;;;;;;3.70;3.40;;;;;;;;;;5052697;28;20118;-87
2022/10/26 10:04:09;;;;;;;3.63;3.33;;;;;;;;;;5052584;28;20107;-87
2022/10/26 10:06:35;;;;;;;9.32;7.45;;;;;;;;;;5052607;28;20459;-87
2022/10/26 10:09:06;;;;;;;5.88;4.80;;;;;;;;;;5052700;28;20111;-87
2022/10/26 10:11:32;;;;;;;;;;;;;;;;;;5052801;28;20110;-87
2022/10/26 10:14:06;;;;;;;6.88;4.60;;;;;;;;;;5060633;28;19950;-87
2022/10/26 10:16:34;;;;;;;4.28;3.50;;;;;;;;;;5072675;28;20098;-87
2022/10/26 10:19:01;;;;;;;7.47;6.78;;;;;;;;;;5065407;28;20061;-87
2022/10/26 10:21:34;;;;;;;5.28;4.88;;;;;;;;;;5052718;28;20045;-87
2022/10/26 10:24:00;;;;;;;4.30;3.90;;;;;;;;;;5052233;28;20057;-87
2022/10/26 10:26:26;;;;;;;8.05;4.85;;;;;;;;;;5062027;28;20048;-88
2022/10/26 10:28:57;;;;;;;9.52;4.43;;;;;;;;;;5071572;28;20097;-88
2022/10/26 10:31:27;;;;;;;6.03;5.50;;;;;;;;;;5072295;28;20169;-88
2022/10/26 10:33:55;;;;;;;7.70;5.38;;;;;;;;;;5071487;28;20040;-88
2022/10/26 10:36:23;;;;;;;7.60;5.03;;;;;;;;;;5071671;28;20139;-88
2022/10/26 10:38:51;;;;;;;6.57;5.72;;;;;;;;;;5071377;28;20492;-88
2022/10/26 10:41:19;;;;;;;5.65;5.15;;;;;;;;;;5070779;28;20044;-88
2022/10/26 10:43:47;;;;;;;7.00;6.60;;;;;;;;;;5071454;28;20036;-88
2022/10/26 10:46:18;;;;;;;6.95;6.60;;;;;;;;;;5071878;28;20109;-89
2022/10/26 10:48:46;;;;;;;5.38;5.07;;;;;;;;;;5071500;28;20109;-87
2022/10/26 10:51:18;;;;;;;4.90;4.50;;;;;;;;;;5071688;28;20496;-88
2022/10/26 10:53:45;;;;;;;5.90;5.15;;;;;;;;;;5069133;28;20055;-88
2022/10/26 10:56:22;;;;;;;5.70;5.18;;;;;;;;;;5050658;28;20049;-88
2022/10/26 10:58:52;;;;;;;5.85;5.40;;;;;;;;;;5051348;28;20496;-88
2022/10/26 11:01:21;;;;;;;6.18;5.85;;;;;;;;;;5051740;28;20052;-89
2022/10/26 11:03:53;;;;;;;6.88;6.25;;;;;;;;;;5051278;28;20534;-88
2022/10/26 11:06:22;;;;;;;5.43;5.07;;;;;;;;;;5057489;28;20649;-88
2022/10/26 11:08:50;;;;;;;6.00;5.53;;;;;;;;;;5069334;28;20048;-88
2022/10/26 11:11:18;;;;;;;6.25;5.93;;;;;;;;;;5051077;28;20555;-88
2022/10/26 11:13:49;;;;;;;9.90;9.40;;;;;;;;;;5051649;28;20106;-88
2022/10/26 11:16:19;;;;;;;8.27;6.35;;;;;;;;;;5051296;28;20057;-88
2022/10/26 11:18:48;;;;;;;6.10;5.68;;;;;;;;;;5051438;28;20057;-88
2022/10/26 11:21:19;;;;;;;5.13;4.63;;;;;;;;;;5051303;28;20102;-88
2022/10/26 11:23:48;;;;;;;7.63;7.18;;;;;;;;;;5051114;28;20049;-87
2022/10/26 11:26:17;;;;;;;5.70;5.30;;;;;;;;;;5050594;28;20493;-88
2022/10/26 11:28:47;;;;;;;9.30;7.97;;;;;;;;;;5051255;28;20044;-89
2022/10/26 11:31:14;;;;;;;;;;;;;;;;;;5052001;28;20053;-88
2022/10/26 11:33:42;;;;;;;6.38;5.88;;;;;;;;;;5051268;28;19924;-88
2022/10/26 11:36:09;;;;;;;5.90;5.40;;;;;;;;;;5071004;28;20094;-88
2022/10/26 11:38:38;;;;;;;6.20;5.68;;;;;;;;;;5071201;28;20048;-88
2022/10/26 11:41:10;;;;;;;10.88;10.25;;;;;;;;;;5070433;28;20470;-88
2022/10/26 11:43:39;;;;;;;10.98;10.02;;;;;;;;;;5070997;28;20075;-88
2022/10/26 11:46:07;;;;;;;6.88;6.18;;;;;;;;;;5070783;28;20407;-88
2022/10/26 11:48:37;;;;;;;9.85;9.43;;;;;;;;;;5071631;28;20061;-87
2022/10/26 11:51:05;;;;;;;6.35;6.00;;;;;;;;;;5071061;28;20650;-88
2022/10/26 11:53:35;;;;;;;8.77;8.35;;;;;;;;;;5070990;28;20118;-88
2022/10/26 11:56:03;;;;;;;6.18;5.78;;;;;;;;;;5070618;28;20053;-87
2022/10/26 11:58:32;;;;;;;10.07;9.27;;;;;;;;;;5071037;28;20056;-88
2022/10/26 12:01:00;;;;;;;10.15;9.65;;;;;;;;;;5070587;28;20492;-87
2022/10/26 12:03:28;;;;;;;6.88;6.38;;;;;;;;;;5070856;28;20550;-87
2022/10/26 12:05:55;;;;;;;6.07;5.68;;;;;;;;;;5070537;28;20049;-88
2022/10/26 12:08:24;;;;;;;9.77;9.20;;;;;;;;;;5070771;28;20139;-88
2022/10/26 12:10:56;;;;;;;6.75;6.35;;;;;;;;;;5070143;28;20131;-87
2022/10/26 12:13:27;;;;;;;5.88;5.40;;;;;;;;;;5072632;28;20082;-88
2022/10/26 12:16:00;;;;;;;7.20;6.70;;;;;;;;;;5074198;28;20048;-87
2022/10/26 12:18:33;;;;;;;7.78;7.45;;;;;;;;;;5074494;28;20048;-87
2022/10/26 12:21:02;;;;;;;6.57;6.00;;;;;;;;;;5074053;28;20575;-87
2022/10/26 12:23:30;;;;;;;7.47;7.07;;;;;;;;;;5073979;28;20123;-87
2022/10/26 12:26:12;;;;;;;7.18;6.78;;;;;;;;;;5074217;28;20045;-87
2022/10/26 12:28:40;;;;;;;7.13;6.28;;;;;;;;;;5074083;28;20044;-87
2022/10/26 12:31:30;;;;;;;7.57;7.07;;;;;;;;;;5073949;28;20514;-88
2022/10/26 12:33:59;;;;;;;8.07;7.65;;;;;;;;;;5073948;28;20045;-87
2022/10/26 12:36:44;;;;;;;7.38;6.78;;;;;;;;;;5073743;28;20443;-87
2022/10/26 12:39:26;;;;;;;7.88;5.65;;;;;;;;;;5073755;28;20048;-87
2022/10/26 12:41:52;;;;;;;;;;;;;;;;;;5074397;28;20481;-87
2022/10/26 12:44:32;;;;;;;10.57;9.98;;;;;;;;;;5073731;28;19969;-88
2022/10/26 12:46:58;;;;;;;5.38;5.07;;;;;;;;;;5073553;28;20053;-88
2022/10/26 12:49:40;;;;;;;9.65;9.23;;;;;;;;;;5072178;28;20125;-88
2022/10/26 12:52:19;;;;;;;7.05;6.43;;;;;;;;;;5053987;28;20045;-88
2022/10/26 12:54:51;;;;;;;6.72;6.30;;;;;;;;;;5053122;28;20040;-87
2022/10/26 12:57:22;;;;;;;8.45;8.10;;;;;;;;;;5054038;28;20102;-88
2022/10/26 12:59:52;;;;;;;7.88;7.38;;;;;;;;;;5053394;28;20492;-87
2022/10/26 13:02:36;;;;;;;7.90;7.30;;;;;;;;;;5053815;28;20067;-87
2022/10/26 13:05:13;;;;;;;10.25;9.65;;;;;;;;;;5053448;28;20547;-88
2022/10/26 13:07:42;;;;;;;7.15;6.85;;;;;;;;;;5053812;28;20052;-87
2022/10/26 13:10:18;;;;;;;8.70;7.93;;;;;;;;;;5053394;28;20040;-88
2022/10/26 13:12:49;;;;;;;5.97;5.45;;;;;;;;;;5053660;28;20110;-87
2022/10/26 13:15:23;;;;;;;6.32;5.82;;;;;;;;;;5053420;28;20049;-87
2022/10/26 13:18:10;;;;;;;8.82;8.15;;;;;;;;;;5053256;28;20440;-87
2022/10/26 13:20:50;;;;;;;4.85;4.65;;;;;;;;;;5049841;28;20053;-87
2022/10/26 13:23:21;;;;;;;7.90;7.30;;;;;;;;;;5052726;28;20064;-87
2022/10/26 13:26:01;;;;;;;5.97;5.63;;;;;;;;;;5052721;28;20053;-87
2022/10/26 13:28:32;;;;;;;7.95;7.55;;;;;;;;;;5072676;28;20110;-85
2022/10/26 13:30:58;;;;;;;5.75;5.38;;;;;;;;;;5060508;28;20045;-86
2022/10/26 13:33:29;;;;;;;5.97;5.63;;;;;;;;;;5052917;28;20107;-87
2022/10/26 13:35:57;;;;;;;6.13;5.80;;;;;;;;;;5052750;28;20102;-86
2022/10/26 13:38:28;;;;;;;5.93;5.43;;;;;;;;;;5061169;28;20102;-86
2022/10/26 13:40:59;;;;;;;7.63;7.03;;;;;;;;;;5072106;28;20076;-86
2022/10/26 13:43:27;;;;;;;4.35;4.05;;;;;;;;;;5073095;28;20045;-86
2022/10/26 13:45:55;;;;;;;3.92;3.72;;;;;;;;;;5061756;28;20075;-86
2022/10/26 13:48:26;;;;;;;7.75;7.38;;;;;;;;;;5052489;28;20057;-86
2022/10/26 13:50:54;;;;;;;6.55;6.15;;;;;;;;;;5052514;28;20564;-86
2022/10/26 13:53:23;;;;;;;7.63;7.32;;;;;;;;;;5067201;28;20052;-86
2022/10/26 13:55:53;;;;;;;3.85;3.65;;;;;;;;;;5062806;28;20045;-86
2022/10/26 13:58:23;;;;;;;6.80;6.43;;;;;;;;;;5052647;28;20049;-86
2022/10/26 14:01:12;;;;;;;7.78;7.25;;;;;;;;;;5052208;28;20106;-86
2022/10/26 14:03:39;;;;;;;5.70;5.22;;;;;;;;;;5052549;28;20041;-85
2022/10/26 14:06:08;;;;;;;5.05;4.57;;;;;;;;;;5052243;28;20057;-85
2022/10/26 14:08:34;;;;;;;6.88;6.47;;;;;;;;;;5052357;28;20057;-85
2022/10/26 14:11:02;;;;;;;6.35;5.97;;;;;;;;;;5052189;28;20049;-85
2022/10/26 14:13:31;;;;;;;4.43;4.22;;;;;;;;;;5052161;28;20488;-85
2022/10/26 14:15:58;;;;;;;5.68;5.38;;;;;;;;;;5052254;28;20110;-85
2022/10/26 14:18:26;;;;;;;6.18;5.78;;;;;;;;;;5052149;28;20057;-85
2022/10/26 14:20:55;;;;;;;5.22;4.78;;;;;;;;;;5051907;28;20045;-86
2022/10/26 14:23:25;;;;;;;5.15;4.72;;;;;;;;;;5059450;28;20045;-86
2022/10/26 14:25:53;;;;;;;5.30;5.03;;;;;;;;;;5063279;28;20059;-86
2022/10/26 14:28:24;;;;;;;6.47;6.07;;;;;;;;;;5052085;28;20045;-86
2022/10/26 14:30:51;;;;;;;5.78;5.35;;;;;;;;;;5052163;28;20041;-86
2022/10/26 14:33:18;;;;;;;7.35;6.95;;;;;;;;;;5051992;28;20045;-86
2022/10/26 14:35:45;;;;;;;7.43;6.53;;;;;;;;;;5051448;28;20053;-86
2022/10/26 14:38:15;;;;;;;6.75;6.15;;;;;;;;;;5052154;28;20111;-87
2022/10/26 14:40:41;;;;;;;4.47;4.28;;;;;;;;;;5052031;28;20102;-86
2022/10/26 14:43:11;;;;;;;4.20;3.90;;;;;;;;;;5051723;28;20049;-86
2022/10/26 14:45:40;;;;;;;6.20;5.90;;;;;;;;;;5051797;28;20049;-87
2022/10/26 14:48:07;;;;;;;6.05;5.53;;;;;;;;;;5051815;28;20049;-87
2022/10/26 14:50:35;;;;;;;8.55;8.15;;;;;;;;;;5051824;28;20583;-87
2022/10/26 14:53:02;;;;;;;6.47;5.40;;;;;;;;;;5052002;28;20052;-88